Logo Brunsvigian Airlines

Die löwenstarke Airline aus Braunschweig

Charts auf der Seite von VATEUD

EKBI 042320Z 29001KT CAVOK 14/13 Q1017

flugnummerleerzeichenankunftleerzeichenplanmaessig
ABS602__LAHR_____________09doppelpunkt30

flugnummerleerzeichenankunftleerzeichenplanmaessig
ABS601__LAHR_____________09doppelpunkt00

Kontakt   Impressum

Valid HTML 4.01 Transitional CSS ist valide!